Terminal Aerodrome Forecast
Issued by NWS

Home | Current Version | Previous Version | Text Only | Print | Product List | Glossary On
Versions: 1 2 3 4 5 6 7 8 9 10 11 12 13 14 15 16 17
000
FTPA31 PHFO 270529
TAFHNY
TAF
PHNY 270529Z 2706/2806 05006KT P6SM FEW020 SCT040
     FM272000 VRB06KT P6SM SCT025
     FM280000 04012G22KT P6SM BKN025
     FM280500 05009KT P6SM SCT025=

USA.gov is the U.S. government's official web portal to all federal, state and local government web resources and services.